sensor_id;sensor_type;location;lat;lon;timestamp;P1;durP1;ratioP1;P2;durP2;ratioP2
66298;SDS011;53098;47.658;8.578;2022-07-24T00:02:14;10.17;;;5.63;;
66298;SDS011;53098;47.658;8.578;2022-07-24T00:04:39;9.17;;;5.00;;
66298;SDS011;53098;47.658;8.578;2022-07-24T00:07:04;9.50;;;5.57;;
66298;SDS011;53098;47.658;8.578;2022-07-24T00:09:30;9.43;;;5.40;;
66298;SDS011;53098;47.658;8.578;2022-07-24T00:11:55;8.45;;;5.30;;
66298;SDS011;53098;47.658;8.578;2022-07-24T00:14:20;8.90;;;5.03;;
66298;SDS011;53098;47.658;8.578;2022-07-24T00:16:46;10.38;;;5.18;;
66298;SDS011;53098;47.658;8.578;2022-07-24T00:19:11;8.70;;;5.27;;
66298;SDS011;53098;47.658;8.578;2022-07-24T00:21:36;11.47;;;5.90;;
66298;SDS011;53098;47.658;8.578;2022-07-24T00:24:01;10.27;;;5.60;;
66298;SDS011;53098;47.658;8.578;2022-07-24T00:26:27;10.20;;;5.05;;
66298;SDS011;53098;47.658;8.578;2022-07-24T00:28:52;11.07;;;5.43;;
66298;SDS011;53098;47.658;8.578;2022-07-24T00:31:17;9.63;;;5.77;;
66298;SDS011;53098;47.658;8.578;2022-07-24T00:33:43;10.20;;;5.40;;
66298;SDS011;53098;47.658;8.578;2022-07-24T00:36:08;8.93;;;5.23;;
66298;SDS011;53098;47.658;8.578;2022-07-24T00:38:33;11.25;;;5.00;;
66298;SDS011;53098;47.658;8.578;2022-07-24T00:40:59;9.27;;;4.40;;
66298;SDS011;53098;47.658;8.578;2022-07-24T00:43:24;8.47;;;5.13;;
66298;SDS011;53098;47.658;8.578;2022-07-24T00:45:50;10.15;;;5.60;;
66298;SDS011;53098;47.658;8.578;2022-07-24T00:48:15;9.38;;;4.88;;
66298;SDS011;53098;47.658;8.578;2022-07-24T00:50:40;11.20;;;5.23;;
66298;SDS011;53098;47.658;8.578;2022-07-24T00:53:06;10.10;;;5.20;;
66298;SDS011;53098;47.658;8.578;2022-07-24T00:55:32;14.10;;;5.57;;
66298;SDS011;53098;47.658;8.578;2022-07-24T00:57:58;12.98;;;5.88;;
66298;SDS011;53098;47.658;8.578;2022-07-24T01:00:23;10.90;;;5.70;;
66298;SDS011;53098;47.658;8.578;2022-07-24T01:02:49;11.03;;;5.57;;
66298;SDS011;53098;47.658;8.578;2022-07-24T01:05:14;9.98;;;5.43;;
66298;SDS011;53098;47.658;8.578;2022-07-24T01:07:40;9.32;;;5.88;;
66298;SDS011;53098;47.658;8.578;2022-07-24T01:10:06;8.80;;;5.00;;
66298;SDS011;53098;47.658;8.578;2022-07-24T01:12:32;9.65;;;5.47;;
66298;SDS011;53098;47.658;8.578;2022-07-24T01:14:57;11.80;;;5.50;;
66298;SDS011;53098;47.658;8.578;2022-07-24T01:17:23;8.87;;;4.93;;
66298;SDS011;53098;47.658;8.578;2022-07-24T01:19:48;11.13;;;5.35;;
66298;SDS011;53098;47.658;8.578;2022-07-24T01:22:14;8.87;;;4.97;;
66298;SDS011;53098;47.658;8.578;2022-07-24T01:24:39;11.52;;;5.78;;
66298;SDS011;53098;47.658;8.578;2022-07-24T01:27:04;9.90;;;5.87;;
66298;SDS011;53098;47.658;8.578;2022-07-24T01:29:30;10.25;;;5.65;;
66298;SDS011;53098;47.658;8.578;2022-07-24T01:31:55;12.00;;;6.37;;
66298;SDS011;53098;47.658;8.578;2022-07-24T01:34:20;10.27;;;5.60;;
66298;SDS011;53098;47.658;8.578;2022-07-24T01:36:46;13.83;;;5.37;;
66298;SDS011;53098;47.658;8.578;2022-07-24T01:39:11;10.20;;;6.25;;
66298;SDS011;53098;47.658;8.578;2022-07-24T01:41:36;9.47;;;5.23;;
66298;SDS011;53098;47.658;8.578;2022-07-24T01:44:02;12.07;;;6.20;;
66298;SDS011;53098;47.658;8.578;2022-07-24T01:46:27;12.93;;;5.35;;
66298;SDS011;53098;47.658;8.578;2022-07-24T01:48:53;9.95;;;5.63;;
66298;SDS011;53098;47.658;8.578;2022-07-24T01:51:18;9.88;;;5.47;;
66298;SDS011;53098;47.658;8.578;2022-07-24T01:53:43;9.38;;;5.82;;
66298;SDS011;53098;47.658;8.578;2022-07-24T01:56:09;10.33;;;6.17;;
66298;SDS011;53098;47.658;8.578;2022-07-24T01:58:34;10.87;;;5.77;;
66298;SDS011;53098;47.658;8.578;2022-07-24T02:00:59;9.67;;;5.63;;
66298;SDS011;53098;47.658;8.578;2022-07-24T02:03:24;10.93;;;6.20;;
66298;SDS011;53098;47.658;8.578;2022-07-24T02:05:50;10.43;;;5.72;;
66298;SDS011;53098;47.658;8.578;2022-07-24T02:08:15;10.73;;;5.83;;
66298;SDS011;53098;47.658;8.578;2022-07-24T02:10:40;10.83;;;5.73;;
66298;SDS011;53098;47.658;8.578;2022-07-24T02:13:06;10.23;;;5.83;;
66298;SDS011;53098;47.658;8.578;2022-07-24T02:15:31;11.23;;;5.68;;
66298;SDS011;53098;47.658;8.578;2022-07-24T02:17:57;10.73;;;5.50;;
66298;SDS011;53098;47.658;8.578;2022-07-24T02:20:23;9.80;;;5.15;;
66298;SDS011;53098;47.658;8.578;2022-07-24T02:22:49;9.93;;;5.35;;
66298;SDS011;53098;47.658;8.578;2022-07-24T02:25:14;12.98;;;5.57;;
66298;SDS011;53098;47.658;8.578;2022-07-24T02:27:40;13.07;;;5.80;;
66298;SDS011;53098;47.658;8.578;2022-07-24T02:30:06;10.33;;;5.50;;
66298;SDS011;53098;47.658;8.578;2022-07-24T02:32:32;9.80;;;5.60;;
66298;SDS011;53098;47.658;8.578;2022-07-24T02:34:57;11.60;;;6.20;;
66298;SDS011;53098;47.658;8.578;2022-07-24T02:37:22;9.97;;;5.70;;
66298;SDS011;53098;47.658;8.578;2022-07-24T02:39:48;9.90;;;6.00;;
66298;SDS011;53098;47.658;8.578;2022-07-24T02:42:13;12.10;;;5.43;;
66298;SDS011;53098;47.658;8.578;2022-07-24T02:44:38;11.03;;;6.20;;
66298;SDS011;53098;47.658;8.578;2022-07-24T02:47:04;8.93;;;5.80;;
66298;SDS011;53098;47.658;8.578;2022-07-24T02:49:29;10.75;;;5.47;;
66298;SDS011;53098;47.658;8.578;2022-07-24T02:51:54;10.80;;;5.33;;
66298;SDS011;53098;47.658;8.578;2022-07-24T02:54:19;12.17;;;6.63;;
66298;SDS011;53098;47.658;8.578;2022-07-24T02:56:45;10.70;;;5.70;;
66298;SDS011;53098;47.658;8.578;2022-07-24T02:59:10;10.50;;;5.87;;
66298;SDS011;53098;47.658;8.578;2022-07-24T03:01:35;12.10;;;5.93;;
66298;SDS011;53098;47.658;8.578;2022-07-24T03:04:01;11.20;;;5.87;;
66298;SDS011;53098;47.658;8.578;2022-07-24T03:06:26;10.27;;;5.33;;
66298;SDS011;53098;47.658;8.578;2022-07-24T03:08:51;11.17;;;5.70;;
66298;SDS011;53098;47.658;8.578;2022-07-24T03:11:16;10.73;;;5.90;;
66298;SDS011;53098;47.658;8.578;2022-07-24T03:13:42;9.80;;;5.93;;
66298;SDS011;53098;47.658;8.578;2022-07-24T03:16:07;9.82;;;5.43;;
66298;SDS011;53098;47.658;8.578;2022-07-24T03:18:32;8.20;;;5.40;;
66298;SDS011;53098;47.658;8.578;2022-07-24T03:20:57;8.73;;;5.50;;
66298;SDS011;53098;47.658;8.578;2022-07-24T03:23:23;10.97;;;6.03;;
66298;SDS011;53098;47.658;8.578;2022-07-24T03:25:48;9.33;;;5.13;;
66298;SDS011;53098;47.658;8.578;2022-07-24T03:28:14;9.17;;;5.13;;
66298;SDS011;53098;47.658;8.578;2022-07-24T03:30:40;10.57;;;5.35;;
66298;SDS011;53098;47.658;8.578;2022-07-24T03:33:05;9.63;;;5.93;;
66298;SDS011;53098;47.658;8.578;2022-07-24T03:35:30;10.27;;;6.10;;
66298;SDS011;53098;47.658;8.578;2022-07-24T03:37:55;11.43;;;5.80;;
66298;SDS011;53098;47.658;8.578;2022-07-24T03:40:21;9.87;;;5.97;;
66298;SDS011;53098;47.658;8.578;2022-07-24T03:42:46;10.03;;;6.00;;
66298;SDS011;53098;47.658;8.578;2022-07-24T03:45:11;10.90;;;5.50;;
66298;SDS011;53098;47.658;8.578;2022-07-24T03:47:36;9.80;;;5.23;;
66298;SDS011;53098;47.658;8.578;2022-07-24T03:50:02;10.20;;;5.70;;
66298;SDS011;53098;47.658;8.578;2022-07-24T03:52:27;9.45;;;5.57;;
66298;SDS011;53098;47.658;8.578;2022-07-24T03:54:53;11.20;;;5.87;;
66298;SDS011;53098;47.658;8.578;2022-07-24T03:57:18;11.03;;;6.00;;
66298;SDS011;53098;47.658;8.578;2022-07-24T03:59:43;13.03;;;6.70;;
66298;SDS011;53098;47.658;8.578;2022-07-24T04:02:08;9.53;;;5.60;;
66298;SDS011;53098;47.658;8.578;2022-07-24T04:04:34;13.10;;;5.70;;
66298;SDS011;53098;47.658;8.578;2022-07-24T04:06:59;11.87;;;6.17;;
66298;SDS011;53098;47.658;8.578;2022-07-24T04:09:24;8.70;;;5.30;;
66298;SDS011;53098;47.658;8.578;2022-07-24T04:11:50;10.32;;;5.85;;
66298;SDS011;53098;47.658;8.578;2022-07-24T04:14:15;11.23;;;6.40;;
66298;SDS011;53098;47.658;8.578;2022-07-24T04:16:40;10.03;;;6.07;;
66298;SDS011;53098;47.658;8.578;2022-07-24T04:19:06;10.20;;;5.93;;
66298;SDS011;53098;47.658;8.578;2022-07-24T04:21:31;8.95;;;5.47;;
66298;SDS011;53098;47.658;8.578;2022-07-24T04:23:56;10.63;;;5.97;;
66298;SDS011;53098;47.658;8.578;2022-07-24T04:26:22;11.57;;;5.60;;
66298;SDS011;53098;47.658;8.578;2022-07-24T04:28:47;10.40;;;6.03;;
66298;SDS011;53098;47.658;8.578;2022-07-24T04:31:12;10.15;;;5.75;;
66298;SDS011;53098;47.658;8.578;2022-07-24T04:33:37;10.37;;;6.03;;
66298;SDS011;53098;47.658;8.578;2022-07-24T04:36:03;10.30;;;6.47;;
66298;SDS011;53098;47.658;8.578;2022-07-24T04:38:29;11.32;;;6.20;;
66298;SDS011;53098;47.658;8.578;2022-07-24T04:40:54;11.23;;;6.47;;
66298;SDS011;53098;47.658;8.578;2022-07-24T04:43:19;10.60;;;5.73;;
66298;SDS011;53098;47.658;8.578;2022-07-24T04:45:45;9.37;;;5.93;;
66298;SDS011;53098;47.658;8.578;2022-07-24T04:48:10;8.77;;;5.33;;
66298;SDS011;53098;47.658;8.578;2022-07-24T04:50:35;11.20;;;6.00;;
66298;SDS011;53098;47.658;8.578;2022-07-24T04:53:00;9.93;;;5.90;;
66298;SDS011;53098;47.658;8.578;2022-07-24T04:55:26;9.23;;;5.80;;
66298;SDS011;53098;47.658;8.578;2022-07-24T04:57:51;10.37;;;5.97;;
66298;SDS011;53098;47.658;8.578;2022-07-24T05:00:16;10.30;;;5.83;;
66298;SDS011;53098;47.658;8.578;2022-07-24T05:02:42;11.45;;;6.38;;
66298;SDS011;53098;47.658;8.578;2022-07-24T05:05:07;10.95;;;6.32;;
66298;SDS011;53098;47.658;8.578;2022-07-24T05:07:33;10.52;;;6.47;;
66298;SDS011;53098;47.658;8.578;2022-07-24T05:09:58;10.40;;;5.83;;
66298;SDS011;53098;47.658;8.578;2022-07-24T05:12:24;8.50;;;5.23;;
66298;SDS011;53098;47.658;8.578;2022-07-24T05:14:49;11.00;;;5.72;;
66298;SDS011;53098;47.658;8.578;2022-07-24T05:17:14;12.13;;;5.77;;
66298;SDS011;53098;47.658;8.578;2022-07-24T05:19:40;11.68;;;6.07;;
66298;SDS011;53098;47.658;8.578;2022-07-24T05:22:08;12.30;;;6.47;;
66298;SDS011;53098;47.658;8.578;2022-07-24T05:24:33;10.13;;;6.00;;
66298;SDS011;53098;47.658;8.578;2022-07-24T05:26:59;10.50;;;5.97;;
66298;SDS011;53098;47.658;8.578;2022-07-24T05:29:24;13.07;;;5.67;;
66298;SDS011;53098;47.658;8.578;2022-07-24T05:31:50;10.75;;;6.43;;
66298;SDS011;53098;47.658;8.578;2022-07-24T05:34:15;12.67;;;5.93;;
66298;SDS011;53098;47.658;8.578;2022-07-24T05:36:40;12.93;;;5.77;;
66298;SDS011;53098;47.658;8.578;2022-07-24T05:39:09;9.83;;;5.87;;
66298;SDS011;53098;47.658;8.578;2022-07-24T05:41:34;9.95;;;5.93;;
66298;SDS011;53098;47.658;8.578;2022-07-24T05:43:59;10.18;;;5.65;;
66298;SDS011;53098;47.658;8.578;2022-07-24T05:46:25;10.27;;;6.00;;
66298;SDS011;53098;47.658;8.578;2022-07-24T05:48:50;10.07;;;5.57;;
66298;SDS011;53098;47.658;8.578;2022-07-24T05:51:15;11.73;;;5.77;;
66298;SDS011;53098;47.658;8.578;2022-07-24T05:53:41;12.40;;;6.75;;
66298;SDS011;53098;47.658;8.578;2022-07-24T05:56:06;9.97;;;6.07;;
66298;SDS011;53098;47.658;8.578;2022-07-24T05:58:31;11.48;;;6.53;;
66298;SDS011;53098;47.658;8.578;2022-07-24T06:00:57;8.27;;;5.43;;
66298;SDS011;53098;47.658;8.578;2022-07-24T06:03:22;9.43;;;6.50;;
66298;SDS011;53098;47.658;8.578;2022-07-24T06:05:47;11.87;;;6.27;;
66298;SDS011;53098;47.658;8.578;2022-07-24T06:08:13;14.80;;;6.57;;
66298;SDS011;53098;47.658;8.578;2022-07-24T06:10:38;9.53;;;5.93;;
66298;SDS011;53098;47.658;8.578;2022-07-24T06:13:03;9.43;;;5.47;;
66298;SDS011;53098;47.658;8.578;2022-07-24T06:15:28;10.70;;;6.57;;
66298;SDS011;53098;47.658;8.578;2022-07-24T06:17:54;10.20;;;5.97;;
66298;SDS011;53098;47.658;8.578;2022-07-24T06:20:19;10.43;;;6.28;;
66298;SDS011;53098;47.658;8.578;2022-07-24T06:22:44;12.50;;;6.80;;
66298;SDS011;53098;47.658;8.578;2022-07-24T06:25:10;9.67;;;5.63;;
66298;SDS011;53098;47.658;8.578;2022-07-24T06:27:42;11.23;;;5.70;;
66298;SDS011;53098;47.658;8.578;2022-07-24T06:30:18;10.43;;;5.90;;
66298;SDS011;53098;47.658;8.578;2022-07-24T06:32:44;9.98;;;5.68;;
66298;SDS011;53098;47.658;8.578;2022-07-24T06:35:10;10.40;;;5.55;;
66298;SDS011;53098;47.658;8.578;2022-07-24T06:37:35;10.20;;;6.03;;
66298;SDS011;53098;47.658;8.578;2022-07-24T06:40:01;11.17;;;5.97;;
66298;SDS011;53098;47.658;8.578;2022-07-24T06:42:26;10.30;;;5.78;;
66298;SDS011;53098;47.658;8.578;2022-07-24T06:44:51;8.83;;;5.10;;
66298;SDS011;53098;47.658;8.578;2022-07-24T06:47:17;9.80;;;5.80;;
66298;SDS011;53098;47.658;8.578;2022-07-24T06:49:42;9.27;;;5.10;;
66298;SDS011;53098;47.658;8.578;2022-07-24T06:52:07;12.17;;;5.37;;
66298;SDS011;53098;47.658;8.578;2022-07-24T06:54:33;10.70;;;5.95;;
66298;SDS011;53098;47.658;8.578;2022-07-24T06:56:58;10.43;;;5.63;;
66298;SDS011;53098;47.658;8.578;2022-07-24T06:59:23;10.37;;;6.10;;
66298;SDS011;53098;47.658;8.578;2022-07-24T07:01:49;14.60;;;5.90;;
66298;SDS011;53098;47.658;8.578;2022-07-24T07:04:14;8.85;;;5.25;;
66298;SDS011;53098;47.658;8.578;2022-07-24T07:06:39;9.37;;;5.60;;
66298;SDS011;53098;47.658;8.578;2022-07-24T07:09:04;11.10;;;6.23;;
66298;SDS011;53098;47.658;8.578;2022-07-24T07:11:30;11.25;;;5.88;;
66298;SDS011;53098;47.658;8.578;2022-07-24T07:13:55;12.60;;;6.27;;
66298;SDS011;53098;47.658;8.578;2022-07-24T07:16:20;13.83;;;6.37;;
66298;SDS011;53098;47.658;8.578;2022-07-24T07:18:46;9.73;;;5.73;;
66298;SDS011;53098;47.658;8.578;2022-07-24T07:21:11;12.00;;;6.55;;
66298;SDS011;53098;47.658;8.578;2022-07-24T07:23:37;11.67;;;6.93;;
66298;SDS011;53098;47.658;8.578;2022-07-24T07:26:02;12.47;;;5.90;;
66298;SDS011;53098;47.658;8.578;2022-07-24T07:28:27;12.00;;;6.93;;
66298;SDS011;53098;47.658;8.578;2022-07-24T07:30:52;12.43;;;6.53;;
66298;SDS011;53098;47.658;8.578;2022-07-24T07:33:18;11.03;;;6.30;;
66298;SDS011;53098;47.658;8.578;2022-07-24T07:35:43;12.25;;;6.05;;
66298;SDS011;53098;47.658;8.578;2022-07-24T07:38:08;11.57;;;6.60;;
66298;SDS011;53098;47.658;8.578;2022-07-24T07:40:34;10.43;;;6.40;;
66298;SDS011;53098;47.658;8.578;2022-07-24T07:42:59;11.97;;;6.40;;
66298;SDS011;53098;47.658;8.578;2022-07-24T07:45:24;11.77;;;6.77;;
66298;SDS011;53098;47.658;8.578;2022-07-24T07:47:49;10.77;;;6.27;;
66298;SDS011;53098;47.658;8.578;2022-07-24T07:50:15;10.83;;;6.43;;
66298;SDS011;53098;47.658;8.578;2022-07-24T07:52:40;11.75;;;6.38;;
66298;SDS011;53098;47.658;8.578;2022-07-24T07:55:06;12.77;;;6.75;;
66298;SDS011;53098;47.658;8.578;2022-07-24T07:57:31;13.05;;;7.68;;
66298;SDS011;53098;47.658;8.578;2022-07-24T07:59:56;14.10;;;6.10;;
66298;SDS011;53098;47.658;8.578;2022-07-24T08:02:22;11.17;;;6.87;;
66298;SDS011;53098;47.658;8.578;2022-07-24T08:04:47;9.60;;;6.30;;
66298;SDS011;53098;47.658;8.578;2022-07-24T08:07:12;10.50;;;6.37;;
66298;SDS011;53098;47.658;8.578;2022-07-24T08:09:38;11.20;;;6.75;;
66298;SDS011;53098;47.658;8.578;2022-07-24T08:12:03;11.18;;;7.25;;
66298;SDS011;53098;47.658;8.578;2022-07-24T08:14:29;10.27;;;6.22;;
66298;SDS011;53098;47.658;8.578;2022-07-24T08:16:54;12.02;;;6.07;;
66298;SDS011;53098;47.658;8.578;2022-07-24T08:19:19;13.37;;;7.00;;
66298;SDS011;53098;47.658;8.578;2022-07-24T08:21:45;11.60;;;6.65;;
66298;SDS011;53098;47.658;8.578;2022-07-24T08:24:10;9.60;;;6.03;;
66298;SDS011;53098;47.658;8.578;2022-07-24T08:26:36;9.73;;;5.93;;
66298;SDS011;53098;47.658;8.578;2022-07-24T08:29:01;8.33;;;5.77;;
66298;SDS011;53098;47.658;8.578;2022-07-24T08:31:26;12.70;;;6.83;;
66298;SDS011;53098;47.658;8.578;2022-07-24T08:33:52;10.68;;;6.82;;
66298;SDS011;53098;47.658;8.578;2022-07-24T08:36:17;10.37;;;6.40;;
66298;SDS011;53098;47.658;8.578;2022-07-24T08:38:42;11.87;;;6.50;;
66298;SDS011;53098;47.658;8.578;2022-07-24T08:41:07;10.13;;;6.50;;
66298;SDS011;53098;47.658;8.578;2022-07-24T08:43:33;10.77;;;6.78;;
66298;SDS011;53098;47.658;8.578;2022-07-24T08:45:58;10.13;;;6.17;;
66298;SDS011;53098;47.658;8.578;2022-07-24T08:48:24;10.68;;;6.55;;
66298;SDS011;53098;47.658;8.578;2022-07-24T08:50:51;9.27;;;5.75;;
66298;SDS011;53098;47.658;8.578;2022-07-24T08:53:20;11.98;;;6.85;;
66298;SDS011;53098;47.658;8.578;2022-07-24T08:55:46;10.52;;;6.30;;
66298;SDS011;53098;47.658;8.578;2022-07-24T08:58:11;10.20;;;6.27;;
66298;SDS011;53098;47.658;8.578;2022-07-24T09:00:37;14.33;;;6.27;;
66298;SDS011;53098;47.658;8.578;2022-07-24T09:03:02;9.03;;;5.83;;
66298;SDS011;53098;47.658;8.578;2022-07-24T09:05:28;10.20;;;5.75;;
66298;SDS011;53098;47.658;8.578;2022-07-24T09:08:06;11.77;;;6.23;;
66298;SDS011;53098;47.658;8.578;2022-07-24T09:10:31;14.52;;;6.95;;
66298;SDS011;53098;47.658;8.578;2022-07-24T09:12:57;10.17;;;5.53;;
66298;SDS011;53098;47.658;8.578;2022-07-24T09:15:22;11.17;;;5.67;;
66298;SDS011;53098;47.658;8.578;2022-07-24T09:17:55;10.45;;;5.97;;
66298;SDS011;53098;47.658;8.578;2022-07-24T09:20:20;10.10;;;6.15;;
66298;SDS011;53098;47.658;8.578;2022-07-24T09:22:46;10.68;;;5.70;;
66298;SDS011;53098;47.658;8.578;2022-07-24T09:27:38;8.30;;;5.13;;
66298;SDS011;53098;47.658;8.578;2022-07-24T09:30:05;9.05;;;5.68;;
66298;SDS011;53098;47.658;8.578;2022-07-24T09:32:30;11.10;;;6.35;;
66298;SDS011;53098;47.658;8.578;2022-07-24T09:34:56;9.57;;;6.05;;
66298;SDS011;53098;47.658;8.578;2022-07-24T09:37:21;9.98;;;6.15;;
66298;SDS011;53098;47.658;8.578;2022-07-24T09:39:47;9.90;;;6.22;;
66298;SDS011;53098;47.658;8.578;2022-07-24T09:42:13;9.63;;;6.38;;
66298;SDS011;53098;47.658;8.578;2022-07-24T09:44:38;11.40;;;6.40;;
66298;SDS011;53098;47.658;8.578;2022-07-24T09:47:10;9.75;;;6.22;;
66298;SDS011;53098;47.658;8.578;2022-07-24T09:49:36;10.55;;;6.07;;
66298;SDS011;53098;47.658;8.578;2022-07-24T09:52:07;11.27;;;6.72;;
66298;SDS011;53098;47.658;8.578;2022-07-24T09:54:33;10.43;;;6.43;;
66298;SDS011;53098;47.658;8.578;2022-07-24T09:59:58;9.82;;;6.25;;
66298;SDS011;53098;47.658;8.578;2022-07-24T10:02:27;10.02;;;6.13;;
66298;SDS011;53098;47.658;8.578;2022-07-24T10:04:53;12.45;;;5.90;;
66298;SDS011;53098;47.658;8.578;2022-07-24T10:07:20;12.07;;;6.22;;
66298;SDS011;53098;47.658;8.578;2022-07-24T10:09:46;10.52;;;6.30;;
66298;SDS011;53098;47.658;8.578;2022-07-24T10:12:16;9.73;;;5.80;;
66298;SDS011;53098;47.658;8.578;2022-07-24T10:14:43;14.35;;;6.32;;
66298;SDS011;53098;47.658;8.578;2022-07-24T10:17:09;10.80;;;5.78;;
66298;SDS011;53098;47.658;8.578;2022-07-24T10:22:10;10.10;;;5.90;;
66298;SDS011;53098;47.658;8.578;2022-07-24T10:25:19;10.77;;;6.68;;
66298;SDS011;53098;47.658;8.578;2022-07-24T10:27:34;10.55;;;6.35;;
66298;SDS011;53098;47.658;8.578;2022-07-24T10:30:02;11.73;;;6.40;;
66298;SDS011;53098;47.658;8.578;2022-07-24T10:32:29;10.20;;;6.32;;
66298;SDS011;53098;47.658;8.578;2022-07-24T10:37:43;10.43;;;6.32;;
66298;SDS011;53098;47.658;8.578;2022-07-24T10:45:19;10.70;;;6.45;;
66298;SDS011;53098;47.658;8.578;2022-07-24T10:47:45;11.05;;;6.47;;
66298;SDS011;53098;47.658;8.578;2022-07-24T10:50:11;11.23;;;6.63;;
66298;SDS011;53098;47.658;8.578;2022-07-24T10:52:36;9.50;;;5.65;;
66298;SDS011;53098;47.658;8.578;2022-07-24T11:00:24;9.57;;;6.00;;
66298;SDS011;53098;47.658;8.578;2022-07-24T11:02:54;10.15;;;5.85;;
66298;SDS011;53098;47.658;8.578;2022-07-24T11:05:23;10.85;;;6.15;;
66298;SDS011;53098;47.658;8.578;2022-07-24T11:08:32;10.77;;;5.70;;
66298;SDS011;53098;47.658;8.578;2022-07-24T11:10:54;9.35;;;5.15;;
66298;SDS011;53098;47.658;8.578;2022-07-24T11:21:28;9.43;;;5.75;;
66298;SDS011;53098;47.658;8.578;2022-07-24T11:26:37;8.15;;;4.93;;
66298;SDS011;53098;47.658;8.578;2022-07-24T11:29:12;11.88;;;5.53;;
66298;SDS011;53098;47.658;8.578;2022-07-24T11:31:38;8.25;;;5.05;;
66298;SDS011;53098;47.658;8.578;2022-07-24T11:34:03;9.57;;;5.47;;
66298;SDS011;53098;47.658;8.578;2022-07-24T11:36:29;11.80;;;6.20;;
66298;SDS011;53098;47.658;8.578;2022-07-24T11:38:54;8.60;;;5.30;;
66298;SDS011;53098;47.658;8.578;2022-07-24T11:41:20;10.23;;;5.85;;
66298;SDS011;53098;47.658;8.578;2022-07-24T11:43:49;8.93;;;5.33;;
66298;SDS011;53098;47.658;8.578;2022-07-24T11:46:15;10.25;;;5.88;;
66298;SDS011;53098;47.658;8.578;2022-07-24T11:48:40;9.50;;;5.23;;
66298;SDS011;53098;47.658;8.578;2022-07-24T11:51:06;8.57;;;5.63;;
66298;SDS011;53098;47.658;8.578;2022-07-24T11:53:31;11.27;;;5.57;;
66298;SDS011;53098;47.658;8.578;2022-07-24T11:56:03;11.85;;;5.40;;
66298;SDS011;53098;47.658;8.578;2022-07-24T11:58:28;9.45;;;5.55;;
66298;SDS011;53098;47.658;8.578;2022-07-24T12:00:54;8.27;;;5.07;;
66298;SDS011;53098;47.658;8.578;2022-07-24T12:03:19;8.82;;;5.60;;
66298;SDS011;53098;47.658;8.578;2022-07-24T12:05:44;9.30;;;5.70;;
66298;SDS011;53098;47.658;8.578;2022-07-24T12:08:17;8.37;;;4.73;;
66298;SDS011;53098;47.658;8.578;2022-07-24T12:10:44;10.00;;;5.38;;
66298;SDS011;53098;47.658;8.578;2022-07-24T12:13:09;10.52;;;5.13;;
66298;SDS011;53098;47.658;8.578;2022-07-24T12:15:36;9.43;;;5.32;;
66298;SDS011;53098;47.658;8.578;2022-07-24T12:18:04;9.15;;;5.45;;
66298;SDS011;53098;47.658;8.578;2022-07-24T12:20:31;9.13;;;5.38;;
66298;SDS011;53098;47.658;8.578;2022-07-24T12:22:57;11.27;;;5.82;;
66298;SDS011;53098;47.658;8.578;2022-07-24T12:25:23;10.10;;;5.13;;
66298;SDS011;53098;47.658;8.578;2022-07-24T12:27:49;8.57;;;5.10;;
66298;SDS011;53098;47.658;8.578;2022-07-24T12:30:21;8.67;;;5.20;;
66298;SDS011;53098;47.658;8.578;2022-07-24T12:32:56;11.13;;;5.22;;
66298;SDS011;53098;47.658;8.578;2022-07-24T12:35:22;11.20;;;4.78;;
66298;SDS011;53098;47.658;8.578;2022-07-24T12:37:48;9.43;;;5.05;;
66298;SDS011;53098;47.658;8.578;2022-07-24T12:40:23;8.80;;;5.03;;
66298;SDS011;53098;47.658;8.578;2022-07-24T12:42:59;8.60;;;4.38;;
66298;SDS011;53098;47.658;8.578;2022-07-24T12:45:25;9.77;;;5.35;;
66298;SDS011;53098;47.658;8.578;2022-07-24T12:48:10;9.23;;;5.25;;
66298;SDS011;53098;47.658;8.578;2022-07-24T12:50:35;9.15;;;5.07;;
66298;SDS011;53098;47.658;8.578;2022-07-24T12:53:05;9.50;;;5.25;;
66298;SDS011;53098;47.658;8.578;2022-07-24T12:55:34;8.27;;;4.88;;
66298;SDS011;53098;47.658;8.578;2022-07-24T12:58:03;11.45;;;5.70;;
66298;SDS011;53098;47.658;8.578;2022-07-24T13:00:29;10.20;;;5.32;;
66298;SDS011;53098;47.658;8.578;2022-07-24T13:02:54;7.70;;;4.88;;
66298;SDS011;53098;47.658;8.578;2022-07-24T13:08:04;7.22;;;4.47;;
66298;SDS011;53098;47.658;8.578;2022-07-24T13:10:30;8.30;;;4.53;;
66298;SDS011;53098;47.658;8.578;2022-07-24T13:12:55;9.03;;;4.93;;
66298;SDS011;53098;47.658;8.578;2022-07-24T13:15:20;7.70;;;4.80;;
66298;SDS011;53098;47.658;8.578;2022-07-24T13:17:46;10.20;;;4.65;;
66298;SDS011;53098;47.658;8.578;2022-07-24T13:20:11;9.35;;;5.25;;
66298;SDS011;53098;47.658;8.578;2022-07-24T13:22:37;8.48;;;5.20;;
66298;SDS011;53098;47.658;8.578;2022-07-24T13:25:02;8.27;;;4.70;;
66298;SDS011;53098;47.658;8.578;2022-07-24T13:27:27;9.07;;;5.07;;
66298;SDS011;53098;47.658;8.578;2022-07-24T13:29:55;10.75;;;4.75;;
66298;SDS011;53098;47.658;8.578;2022-07-24T13:32:20;9.33;;;4.83;;
66298;SDS011;53098;47.658;8.578;2022-07-24T13:34:45;10.07;;;5.07;;
66298;SDS011;53098;47.658;8.578;2022-07-24T13:37:11;8.52;;;5.18;;
66298;SDS011;53098;47.658;8.578;2022-07-24T13:39:36;8.82;;;4.85;;
66298;SDS011;53098;47.658;8.578;2022-07-24T13:42:02;10.15;;;5.63;;
66298;SDS011;53098;47.658;8.578;2022-07-24T13:44:27;7.63;;;4.93;;
66298;SDS011;53098;47.658;8.578;2022-07-24T13:46:52;10.00;;;5.18;;
66298;SDS011;53098;47.658;8.578;2022-07-24T13:49:18;9.20;;;4.75;;
66298;SDS011;53098;47.658;8.578;2022-07-24T13:51:43;9.63;;;5.03;;
66298;SDS011;53098;47.658;8.578;2022-07-24T13:54:09;9.97;;;5.10;;
66298;SDS011;53098;47.658;8.578;2022-07-24T13:56:34;8.30;;;4.93;;
66298;SDS011;53098;47.658;8.578;2022-07-24T13:59:00;8.98;;;4.72;;
66298;SDS011;53098;47.658;8.578;2022-07-24T14:01:25;9.20;;;5.03;;
66298;SDS011;53098;47.658;8.578;2022-07-24T14:03:50;8.67;;;5.33;;
66298;SDS011;53098;47.658;8.578;2022-07-24T14:06:16;9.43;;;4.87;;
66298;SDS011;53098;47.658;8.578;2022-07-24T14:08:41;8.15;;;4.80;;
66298;SDS011;53098;47.658;8.578;2022-07-24T14:11:06;8.53;;;4.67;;
66298;SDS011;53098;47.658;8.578;2022-07-24T14:13:32;7.72;;;4.75;;
66298;SDS011;53098;47.658;8.578;2022-07-24T14:15:57;8.35;;;4.80;;
66298;SDS011;53098;47.658;8.578;2022-07-24T14:18:23;9.77;;;5.20;;
66298;SDS011;53098;47.658;8.578;2022-07-24T14:20:49;8.10;;;4.63;;
66298;SDS011;53098;47.658;8.578;2022-07-24T14:23:14;8.70;;;4.50;;
66298;SDS011;53098;47.658;8.578;2022-07-24T14:25:40;7.63;;;4.28;;
66298;SDS011;53098;47.658;8.578;2022-07-24T14:28:06;9.27;;;5.38;;
66298;SDS011;53098;47.658;8.578;2022-07-24T14:30:34;8.38;;;5.03;;
66298;SDS011;53098;47.658;8.578;2022-07-24T14:33:08;8.68;;;4.80;;
66298;SDS011;53098;47.658;8.578;2022-07-24T14:35:38;8.57;;;4.60;;
66298;SDS011;53098;47.658;8.578;2022-07-24T14:38:09;7.75;;;4.60;;
66298;SDS011;53098;47.658;8.578;2022-07-24T14:40:35;9.15;;;4.90;;
66298;SDS011;53098;47.658;8.578;2022-07-24T14:43:00;9.00;;;5.03;;
66298;SDS011;53098;47.658;8.578;2022-07-24T14:45:29;7.93;;;4.85;;
66298;SDS011;53098;47.658;8.578;2022-07-24T14:47:55;7.63;;;4.25;;
66298;SDS011;53098;47.658;8.578;2022-07-24T14:50:20;8.70;;;4.70;;
66298;SDS011;53098;47.658;8.578;2022-07-24T14:52:46;8.02;;;4.50;;
66298;SDS011;53098;47.658;8.578;2022-07-24T14:55:11;8.63;;;4.80;;
66298;SDS011;53098;47.658;8.578;2022-07-24T14:57:37;7.72;;;4.72;;
66298;SDS011;53098;47.658;8.578;2022-07-24T15:00:04;9.23;;;4.45;;
66298;SDS011;53098;47.658;8.578;2022-07-24T15:02:30;8.05;;;4.60;;
66298;SDS011;53098;47.658;8.578;2022-07-24T15:04:57;9.40;;;4.70;;
66298;SDS011;53098;47.658;8.578;2022-07-24T15:07:23;10.35;;;5.03;;
66298;SDS011;53098;47.658;8.578;2022-07-24T15:09:49;8.48;;;5.15;;